createdAt,value
2017-11-29T03:00:20.242Z,775.59
2017-11-29T03:00:24.505Z,775.63
2017-11-29T03:00:28.560Z,775.58
2017-11-29T03:00:32.846Z,775.66
2017-11-29T03:00:37.130Z,775.59
2017-11-29T03:00:41.384Z,775.61
2017-11-29T03:00:45.661Z,775.62
2017-11-29T03:00:49.961Z,775.62
2017-11-29T03:00:53.899Z,775.64
2017-11-29T03:00:58.172Z,775.63
2017-11-29T03:01:02.680Z,775.59
2017-11-29T03:01:06.952Z,775.62
2017-11-29T03:01:11.220Z,775.65
2017-11-29T03:01:15.497Z,775.6
2017-11-29T03:01:19.875Z,775.59
2017-11-29T03:01:24.255Z,775.63
2017-11-29T03:01:28.437Z,775.61
2017-11-29T03:01:32.619Z,775.61
2017-11-29T03:01:37.000Z,775.63
2017-11-29T03:01:41.167Z,775.63
2017-11-29T03:01:45.325Z,775.65
2017-11-29T03:01:49.613Z,775.57
2017-11-29T03:01:53.658Z,775.56
2017-11-29T03:01:58.037Z,775.65
2017-11-29T03:02:02.523Z,775.63
2017-11-29T03:02:06.681Z,775.63
2017-11-29T03:02:11.065Z,775.63
2017-11-29T03:02:15.345Z,775.64
2017-11-29T03:02:19.504Z,775.65
2017-11-29T03:02:23.805Z,775.66
2017-11-29T03:02:27.951Z,775.64
2017-11-29T03:02:32.335Z,775.65
2017-11-29T03:02:36.594Z,775.64
2017-11-29T03:02:40.775Z,775.59
2017-11-29T03:02:44.929Z,775.61
2017-11-29T03:02:49.220Z,775.6
2017-11-29T03:02:53.499Z,775.61
2017-11-29T03:02:57.658Z,775.63
2017-11-29T03:03:01.838Z,775.59
2017-11-29T03:03:06.040Z,775.65
2017-11-29T03:03:10.324Z,775.67
2017-11-29T03:03:14.715Z,775.63
2017-11-29T03:03:19.106Z,775.63
2017-11-29T03:03:23.377Z,775.65
2017-11-29T03:03:27.638Z,775.65
2017-11-29T03:03:31.918Z,775.65
2017-11-29T03:03:36.190Z,775.65
2017-11-29T03:03:40.451Z,775.64
2017-11-29T03:03:44.503Z,775.65
2017-11-29T03:03:48.780Z,775.66
2017-11-29T03:03:52.955Z,775.69
2017-11-29T03:03:57.231Z,775.65
2017-11-29T03:04:01.161Z,775.65
2017-11-29T03:04:05.427Z,775.66
2017-11-29T03:04:09.493Z,775.68
2017-11-29T03:04:13.797Z,775.69
2017-11-29T03:04:18.185Z,775.64
2017-11-29T03:04:22.572Z,775.65
2017-11-29T03:04:26.964Z,775.66
2017-11-29T03:04:31.331Z,775.62
2017-11-29T03:04:35.611Z,775.61
2017-11-29T03:04:39.889Z,775.62
2017-11-29T03:04:44.035Z,775.62
2017-11-29T03:04:48.407Z,775.6
2017-11-29T03:04:52.846Z,775.65
2017-11-29T03:04:57.101Z,775.62
2017-11-29T03:05:01.289Z,775.68
2017-11-29T03:05:05.359Z,775.61
2017-11-29T03:05:09.508Z,775.64
2017-11-29T03:05:13.774Z,775.64
2017-11-29T03:05:18.028Z,775.65
2017-11-29T03:05:22.298Z,775.65
2017-11-29T03:05:26.347Z,775.65
2017-11-29T03:05:30.634Z,775.63
2017-11-29T03:05:34.795Z,775.67
2017-11-29T03:05:38.846Z,775.62
2017-11-29T03:05:43.127Z,775.64
2017-11-29T03:05:47.416Z,775.63
2017-11-29T03:05:51.673Z,775.61
2017-11-29T03:05:55.737Z,775.66
2017-11-29T03:05:59.832Z,775.64
2017-11-29T03:06:04.264Z,775.62
2017-11-29T03:06:08.448Z,775.66
2017-11-29T03:06:12.832Z,775.63
2017-11-29T03:06:17.209Z,775.63
2017-11-29T03:06:21.582Z,775.65
2017-11-29T03:06:25.766Z,775.65
2017-11-29T03:06:30.171Z,775.62
2017-11-29T03:06:34.435Z,775.64
2017-11-29T03:06:38.697Z,775.62
2017-11-29T03:06:42.758Z,775.57
2017-11-29T03:06:46.933Z,775.63
2017-11-29T03:06:51.315Z,775.61
2017-11-29T03:06:55.585Z,775.66
2017-11-29T03:06:59.956Z,775.64
2017-11-29T03:07:04.318Z,775.67
2017-11-29T03:07:08.590Z,775.65
2017-11-29T03:07:12.739Z,775.66
2017-11-29T03:07:17.107Z,775.67
2017-11-29T03:07:21.418Z,775.66
2017-11-29T03:07:25.671Z,775.66
2017-11-29T03:07:30.054Z,775.67
2017-11-29T03:07:34.440Z,775.67
2017-11-29T03:07:38.832Z,775.71
2017-11-29T03:07:43.097Z,775.71
2017-11-29T03:07:47.375Z,775.69
2017-11-29T03:07:51.429Z,775.72
2017-11-29T03:07:55.692Z,775.71
2017-11-29T03:07:59.744Z,775.7
2017-11-29T03:08:03.894Z,775.7
2017-11-29T03:08:08.043Z,775.75
2017-11-29T03:08:12.428Z,775.69
2017-11-29T03:08:16.839Z,775.7
2017-11-29T03:08:21.236Z,775.69
2017-11-29T03:08:25.418Z,775.69
2017-11-29T03:08:29.818Z,775.68
2017-11-29T03:08:34.067Z,775.69
2017-11-29T03:08:38.444Z,775.7
2017-11-29T03:08:42.842Z,775.72
2017-11-29T03:08:47.100Z,775.67
2017-11-29T03:08:51.392Z,775.6
2017-11-29T03:08:55.773Z,775.69
2017-11-29T03:08:59.927Z,775.64
2017-11-29T03:09:04.291Z,775.68
2017-11-29T03:09:08.591Z,775.66
2017-11-29T03:09:12.761Z,775.68
2017-11-29T03:09:17.112Z,775.68
2017-11-29T03:09:21.520Z,775.7
2017-11-29T03:09:25.796Z,775.67
2017-11-29T03:09:30.069Z,775.65
2017-11-29T03:09:34.350Z,775.61
2017-11-29T03:09:38.510Z,775.65
2017-11-29T03:09:42.655Z,775.71
2017-11-29T03:09:46.801Z,775.67
2017-11-29T03:09:51.187Z,775.66
2017-11-29T03:09:55.351Z,775.69
2017-11-29T03:09:59.620Z,775.69
2017-11-29T03:10:03.908Z,775.67
2017-11-29T03:10:08.185Z,775.65
2017-11-29T03:10:12.467Z,775.65
2017-11-29T03:10:16.860Z,775.68
2017-11-29T03:10:21.138Z,775.67
2017-11-29T03:10:25.299Z,775.67
2017-11-29T03:10:29.552Z,775.66
2017-11-29T03:10:33.821Z,775.61
2017-11-29T03:10:38.212Z,775.65
2017-11-29T03:10:42.476Z,775.61
2017-11-29T03:10:46.646Z,775.64
2017-11-29T03:10:51.033Z,775.65
2017-11-29T03:10:55.188Z,775.62
2017-11-29T03:10:59.579Z,775.62
2017-11-29T03:11:03.746Z,775.63
2017-11-29T03:11:08.025Z,775.64
2017-11-29T03:11:12.395Z,775.57
2017-11-29T03:11:16.569Z,775.59
2017-11-29T03:11:20.717Z,775.6
2017-11-29T03:11:24.866Z,775.61
2017-11-29T03:11:29.244Z,775.61
2017-11-29T03:11:33.532Z,775.61
2017-11-29T03:11:37.680Z,775.59
2017-11-29T03:11:41.736Z,775.58
2017-11-29T03:11:45.802Z,775.63
2017-11-29T03:11:50.060Z,775.62
2017-11-29T03:11:54.334Z,775.63
2017-11-29T03:11:58.516Z,775.63
2017-11-29T03:12:02.670Z,775.68
2017-11-29T03:12:06.717Z,775.64
2017-11-29T03:12:10.779Z,775.59
2017-11-29T03:12:15.071Z,775.63
2017-11-29T03:12:19.350Z,775.61
2017-11-29T03:12:23.665Z,775.61
2017-11-29T03:12:27.809Z,775.54
2017-11-29T03:12:32.074Z,775.54
2017-11-29T03:12:36.359Z,775.54
2017-11-29T03:12:40.763Z,775.61
2017-11-29T03:12:45.153Z,775.6
2017-11-29T03:12:49.423Z,775.63
2017-11-29T03:12:53.796Z,775.61
2017-11-29T03:12:58.171Z,775.62
2017-11-29T03:13:02.434Z,775.58
2017-11-29T03:13:06.700Z,775.62
2017-11-29T03:13:11.083Z,775.58
2017-11-29T03:13:15.262Z,775.61
2017-11-29T03:13:19.661Z,775.56
2017-11-29T03:13:23.938Z,775.56
2017-11-29T03:13:28.211Z,775.62
2017-11-29T03:13:32.400Z,775.59
2017-11-29T03:13:36.696Z,775.6
2017-11-29T03:13:40.848Z,775.62
2017-11-29T03:13:45.140Z,775.6
2017-11-29T03:13:49.421Z,775.58
2017-11-29T03:13:53.477Z,775.63
2017-11-29T03:13:57.909Z,775.63
2017-11-29T03:14:01.938Z,775.61
2017-11-29T03:14:06.079Z,775.64
2017-11-29T03:14:10.338Z,775.61
2017-11-29T03:14:14.528Z,775.62
2017-11-29T03:14:18.688Z,775.61
2017-11-29T03:14:23.070Z,775.6
2017-11-29T03:14:27.239Z,775.66
2017-11-29T03:14:31.506Z,775.59
2017-11-29T03:14:35.782Z,775.62
2017-11-29T03:14:40.178Z,775.61
2017-11-29T03:14:44.234Z,775.62
2017-11-29T03:14:48.520Z,775.58
2017-11-29T03:14:52.570Z,775.6
2017-11-29T03:14:56.717Z,775.59
2017-11-29T03:15:00.976Z,775.56
2017-11-29T03:15:05.287Z,775.59
2017-11-29T03:15:09.469Z,775.61
2017-11-29T03:15:13.521Z,775.55
2017-11-29T03:15:17.934Z,775.58
2017-11-29T03:15:22.208Z,775.57
2017-11-29T03:15:26.371Z,775.6
2017-11-29T03:15:30.695Z,775.59
2017-11-29T03:15:35.004Z,775.61
2017-11-29T03:15:39.171Z,775.6
2017-11-29T03:15:43.457Z,775.61
2017-11-29T03:15:47.613Z,775.61
2017-11-29T03:15:52.003Z,775.62
2017-11-29T03:15:56.050Z,775.62
2017-11-29T03:16:00.431Z,775.62
2017-11-29T03:16:04.718Z,775.61
2017-11-29T03:16:08.891Z,775.62
2017-11-29T03:16:13.177Z,775.61
2017-11-29T03:16:17.350Z,775.65
2017-11-29T03:16:21.625Z,775.61
2017-11-29T03:16:25.999Z,775.6
2017-11-29T03:16:30.046Z,775.61
2017-11-29T03:16:34.190Z,775.56
2017-11-29T03:16:38.340Z,775.66
2017-11-29T03:16:42.388Z,775.66
2017-11-29T03:16:46.323Z,775.65
2017-11-29T03:16:50.507Z,775.62
2017-11-29T03:16:54.659Z,775.65
2017-11-29T03:16:58.954Z,775.63
2017-11-29T03:17:03.510Z,775.65
2017-11-29T03:17:07.787Z,775.57
2017-11-29T03:17:12.173Z,775.61
2017-11-29T03:17:16.241Z,775.58
2017-11-29T03:17:20.295Z,775.63
2017-11-29T03:17:24.677Z,775.63
2017-11-29T03:17:28.957Z,775.63
2017-11-29T03:17:33.375Z,775.61
2017-11-29T03:17:37.532Z,775.61
2017-11-29T03:17:41.921Z,775.58
2017-11-29T03:17:45.867Z,775.63
2017-11-29T03:17:50.007Z,775.62
2017-11-29T03:17:54.177Z,775.62
2017-11-29T03:17:58.342Z,775.63
2017-11-29T03:18:02.694Z,775.66
2017-11-29T03:18:06.977Z,775.56
2017-11-29T03:18:11.239Z,775.64
2017-11-29T03:18:15.401Z,775.59
2017-11-29T03:18:19.687Z,775.65
2017-11-29T03:18:23.986Z,775.6
2017-11-29T03:18:28.258Z,775.62
2017-11-29T03:18:32.426Z,775.62
2017-11-29T03:18:36.705Z,775.62
2017-11-29T03:18:40.866Z,775.59
2017-11-29T03:18:45.053Z,775.62
2017-11-29T03:18:49.330Z,775.61
2017-11-29T03:18:53.496Z,775.62
2017-11-29T03:18:57.876Z,775.61
2017-11-29T03:19:02.059Z,775.57
2017-11-29T03:19:05.992Z,775.52
2017-11-29T03:19:10.149Z,775.53
2017-11-29T03:19:14.432Z,775.57
2017-11-29T03:19:18.698Z,775.54
2017-11-29T03:19:22.848Z,775.57
2017-11-29T03:19:26.993Z,775.57
2017-11-29T03:19:31.328Z,775.55
2017-11-29T03:19:35.469Z,775.51
2017-11-29T03:19:39.520Z,775.51
2017-11-29T03:19:43.554Z,775.54
2017-11-29T03:19:47.836Z,775.57
2017-11-29T03:19:51.895Z,775.57
2017-11-29T03:19:56.177Z,775.51
2017-11-29T03:20:00.456Z,775.52
2017-11-29T03:20:04.974Z,775.48
2017-11-29T03:20:09.394Z,775.52
2017-11-29T03:20:13.665Z,775.57
2017-11-29T03:20:17.949Z,775.54
2017-11-29T03:20:22.112Z,775.54
2017-11-29T03:20:26.368Z,775.51
2017-11-29T03:20:30.526Z,775.54
2017-11-29T03:20:34.804Z,775.54
2017-11-29T03:20:39.189Z,775.5
2017-11-29T03:20:43.354Z,775.51
2017-11-29T03:20:47.274Z,775.52
2017-11-29T03:20:51.428Z,775.49
2017-11-29T03:20:55.697Z,775.51
2017-11-29T03:20:59.862Z,775.53
2017-11-29T03:21:04.132Z,775.48
2017-11-29T03:21:08.277Z,775.51
2017-11-29T03:21:12.560Z,775.51
2017-11-29T03:21:16.856Z,775.49
2017-11-29T03:21:21.155Z,775.53
2017-11-29T03:21:25.229Z,775.5
2017-11-29T03:21:29.531Z,775.53
2017-11-29T03:21:33.922Z,775.51
2017-11-29T03:21:38.065Z,775.54
2017-11-29T03:21:42.271Z,775.5
2017-11-29T03:21:46.436Z,775.52
2017-11-29T03:21:50.600Z,775.45
2017-11-29T03:21:54.871Z,775.47
2017-11-29T03:21:58.916Z,775.48
2017-11-29T03:22:03.387Z,775.5
2017-11-29T03:22:07.769Z,775.46
2017-11-29T03:22:11.798Z,775.44
2017-11-29T03:22:15.971Z,775.49
2017-11-29T03:22:20.169Z,775.52
2017-11-29T03:22:24.433Z,775.48
2017-11-29T03:22:28.712Z,775.53
2017-11-29T03:22:33.108Z,775.48
2017-11-29T03:22:37.496Z,775.51
2017-11-29T03:22:41.780Z,775.5
2017-11-29T03:22:46.061Z,775.5
2017-11-29T03:22:50.202Z,775.48
2017-11-29T03:22:54.253Z,775.49
2017-11-29T03:22:58.546Z,775.51
2017-11-29T03:23:02.966Z,775.49
2017-11-29T03:23:07.238Z,775.47
2017-11-29T03:23:11.416Z,775.5
2017-11-29T03:23:15.673Z,775.51
2017-11-29T03:23:20.072Z,775.49
2017-11-29T03:23:24.247Z,775.46
2017-11-29T03:23:28.411Z,775.49
2017-11-29T03:23:32.682Z,775.49
2017-11-29T03:23:36.968Z,775.53
2017-11-29T03:23:41.238Z,775.47
2017-11-29T03:23:45.514Z,775.48
2017-11-29T03:23:49.667Z,775.48
2017-11-29T03:23:53.829Z,775.48
2017-11-29T03:23:58.099Z,775.48
2017-11-29T03:24:02.248Z,775.46
2017-11-29T03:24:06.396Z,775.5
2017-11-29T03:24:10.538Z,775.5
2017-11-29T03:24:14.587Z,775.51
2017-11-29T03:24:18.863Z,775.49
2017-11-29T03:24:23.136Z,775.53
2017-11-29T03:24:27.290Z,775.49
2017-11-29T03:24:31.597Z,775.5
2017-11-29T03:24:36.003Z,775.54
2017-11-29T03:24:40.152Z,775.5
2017-11-29T03:24:44.422Z,775.51
2017-11-29T03:24:48.602Z,775.47
2017-11-29T03:24:52.887Z,775.48
2017-11-29T03:24:57.045Z,775.47
2017-11-29T03:25:01.318Z,775.49
2017-11-29T03:25:05.484Z,775.51
2017-11-29T03:25:09.529Z,775.52
2017-11-29T03:25:13.801Z,775.52
2017-11-29T03:25:18.180Z,775.53
2017-11-29T03:25:22.577Z,775.51
2017-11-29T03:25:26.740Z,775.51
2017-11-29T03:25:31.041Z,775.49
2017-11-29T03:25:35.434Z,775.51
2017-11-29T03:25:39.488Z,775.52
2017-11-29T03:25:43.755Z,775.5
2017-11-29T03:25:48.041Z,775.51
2017-11-29T03:25:52.233Z,775.51
2017-11-29T03:25:56.601Z,775.51
2017-11-29T03:26:00.880Z,775.51
2017-11-29T03:26:05.261Z,775.54
2017-11-29T03:26:09.416Z,775.51
2017-11-29T03:26:13.810Z,775.51
2017-11-29T03:26:18.091Z,775.53
2017-11-29T03:26:22.472Z,775.49
2017-11-29T03:26:26.630Z,775.51
2017-11-29T03:26:31.043Z,775.54
2017-11-29T03:26:35.303Z,775.53
2017-11-29T03:26:39.590Z,775.53
2017-11-29T03:26:43.774Z,775.52
2017-11-29T03:26:48.041Z,775.52
2017-11-29T03:26:52.095Z,775.53
2017-11-29T03:26:56.154Z,775.55
2017-11-29T03:27:00.306Z,775.55
2017-11-29T03:27:04.878Z,775.47
2017-11-29T03:27:09.143Z,775.47
2017-11-29T03:27:13.398Z,775.49
2017-11-29T03:27:17.342Z,775.6
2017-11-29T03:27:21.507Z,775.58
2017-11-29T03:27:25.671Z,775.52
2017-11-29T03:27:29.729Z,775.56
2017-11-29T03:27:34.020Z,775.56
2017-11-29T03:27:38.276Z,775.57
2017-11-29T03:27:42.563Z,775.53
2017-11-29T03:27:46.843Z,775.61
2017-11-29T03:27:51.218Z,775.59
2017-11-29T03:27:55.386Z,775.56
2017-11-29T03:27:59.554Z,775.55
2017-11-29T03:28:04.038Z,775.55
2017-11-29T03:28:08.300Z,775.58
2017-11-29T03:28:12.697Z,775.54
2017-11-29T03:28:16.857Z,775.55
2017-11-29T03:28:21.133Z,775.56
2017-11-29T03:28:25.389Z,775.58
2017-11-29T03:28:29.762Z,775.57
2017-11-29T03:28:34.037Z,775.62
2017-11-29T03:28:38.091Z,775.61
2017-11-29T03:28:42.278Z,775.61
2017-11-29T03:28:46.655Z,775.53
2017-11-29T03:28:50.824Z,775.6
2017-11-29T03:28:55.009Z,775.61
2017-11-29T03:28:59.067Z,775.59
2017-11-29T03:29:03.261Z,775.58
2017-11-29T03:29:07.692Z,775.58
2017-11-29T03:29:11.742Z,775.58
2017-11-29T03:29:16.114Z,775.58
2017-11-29T03:29:20.391Z,775.59
2017-11-29T03:29:24.795Z,775.58
2017-11-29T03:29:28.942Z,775.57
2017-11-29T03:29:32.988Z,775.62
2017-11-29T03:29:37.374Z,775.57
2017-11-29T03:29:41.630Z,775.59
2017-11-29T03:29:45.683Z,775.6
2017-11-29T03:29:49.869Z,775.62
2017-11-29T03:29:54.016Z,775.58
2017-11-29T03:29:58.393Z,775.61
2017-11-29T03:30:02.553Z,775.59
2017-11-29T03:30:06.966Z,775.59
2017-11-29T03:30:11.279Z,775.59
2017-11-29T03:30:15.469Z,775.57
2017-11-29T03:30:19.764Z,775.57
2017-11-29T03:30:24.190Z,775.61
2017-11-29T03:30:28.460Z,775.6
2017-11-29T03:30:32.856Z,775.6
2017-11-29T03:30:37.296Z,775.56
2017-11-29T03:30:41.596Z,775.59
2017-11-29T03:30:45.892Z,775.56
2017-11-29T03:30:50.200Z,775.61
2017-11-29T03:30:54.590Z,775.62
2017-11-29T03:30:58.817Z,775.61
2017-11-29T03:31:03.319Z,775.61
2017-11-29T03:31:07.736Z,775.6
2017-11-29T03:31:12.136Z,775.61
2017-11-29T03:31:16.552Z,775.62
2017-11-29T03:31:20.981Z,775.6
2017-11-29T03:31:25.142Z,775.67
2017-11-29T03:31:29.109Z,775.64
2017-11-29T03:31:33.267Z,775.6
2017-11-29T03:31:37.623Z,775.6
2017-11-29T03:31:41.795Z,775.58
2017-11-29T03:31:45.897Z,775.57
2017-11-29T03:31:50.063Z,775.61
2017-11-29T03:31:54.209Z,775.65
2017-11-29T03:31:58.377Z,775.66
2017-11-29T03:32:02.645Z,775.62
2017-11-29T03:32:06.682Z,775.6
2017-11-29T03:32:10.989Z,775.61
2017-11-29T03:32:15.055Z,775.62
2017-11-29T03:32:19.431Z,775.62
2017-11-29T03:32:23.712Z,775.57
2017-11-29T03:32:27.761Z,775.6
2017-11-29T03:32:32.010Z,775.57
2017-11-29T03:32:36.289Z,775.58
2017-11-29T03:32:40.441Z,775.58
2017-11-29T03:32:44.697Z,775.58
2017-11-29T03:32:48.968Z,775.54
2017-11-29T03:32:53.119Z,775.56
2017-11-29T03:32:57.503Z,775.59
2017-11-29T03:33:01.885Z,775.55
2017-11-29T03:33:06.331Z,775.55
2017-11-29T03:33:10.494Z,775.54
2017-11-29T03:33:14.773Z,775.53
2017-11-29T03:33:19.048Z,775.54
2017-11-29T03:33:23.216Z,775.53
2017-11-29T03:33:27.488Z,775.54
2017-11-29T03:33:31.766Z,775.49
2017-11-29T03:33:36.030Z,775.51
2017-11-29T03:33:40.089Z,775.5
2017-11-29T03:33:44.260Z,775.55
2017-11-29T03:33:48.642Z,775.51
2017-11-29T03:33:52.898Z,775.52
2017-11-29T03:33:57.060Z,775.52
2017-11-29T03:34:01.203Z,775.55
2017-11-29T03:34:05.373Z,775.48
2017-11-29T03:34:09.544Z,775.52
2017-11-29T03:34:13.933Z,775.52
2017-11-29T03:34:18.219Z,775.51
2017-11-29T03:34:22.651Z,775.52
2017-11-29T03:34:26.924Z,775.51
2017-11-29T03:34:30.987Z,775.51
2017-11-29T03:34:35.045Z,775.52
2017-11-29T03:34:39.211Z,775.52
2017-11-29T03:34:43.479Z,775.51
2017-11-29T03:34:47.764Z,775.51
2017-11-29T03:34:51.808Z,775.52
2017-11-29T03:34:55.860Z,775.51
2017-11-29T03:35:00.162Z,775.5
2017-11-29T03:35:04.468Z,775.51
2017-11-29T03:35:08.734Z,775.5
2017-11-29T03:35:13.041Z,775.49
2017-11-29T03:35:17.239Z,775.51
2017-11-29T03:35:21.515Z,775.53
2017-11-29T03:35:25.465Z,775.51
2017-11-29T03:35:29.620Z,775.48
2017-11-29T03:35:33.991Z,775.47
2017-11-29T03:35:37.921Z,775.51
2017-11-29T03:35:42.195Z,775.51
2017-11-29T03:35:46.373Z,775.51
2017-11-29T03:35:50.543Z,775.49
2017-11-29T03:35:54.731Z,775.49
2017-11-29T03:35:59.012Z,775.49
2017-11-29T03:36:03.412Z,775.5
2017-11-29T03:36:07.452Z,775.51
2017-11-29T03:36:11.734Z,775.49
2017-11-29T03:36:16.112Z,775.49
2017-11-29T03:36:20.535Z,775.52
2017-11-29T03:36:24.797Z,775.52
2017-11-29T03:36:29.076Z,775.5
2017-11-29T03:36:33.390Z,775.49
2017-11-29T03:36:37.541Z,775.52
2017-11-29T03:36:41.804Z,775.49
2017-11-29T03:36:46.215Z,775.52
2017-11-29T03:36:50.492Z,775.53
2017-11-29T03:36:54.896Z,775.54
2017-11-29T03:36:59.198Z,775.52
2017-11-29T03:37:03.611Z,775.52
2017-11-29T03:37:07.781Z,775.5
2017-11-29T03:37:12.159Z,775.54
2017-11-29T03:37:16.421Z,775.54
2017-11-29T03:37:20.705Z,775.53
2017-11-29T03:37:25.091Z,775.51
2017-11-29T03:37:29.372Z,775.56
2017-11-29T03:37:33.520Z,775.51
2017-11-29T03:37:37.908Z,775.54
2017-11-29T03:37:41.957Z,775.55
2017-11-29T03:37:46.331Z,775.51
2017-11-29T03:37:50.511Z,775.56
2017-11-29T03:37:54.888Z,775.57
2017-11-29T03:37:59.156Z,775.55
2017-11-29T03:38:03.314Z,775.61
2017-11-29T03:38:07.589Z,775.49
2017-11-29T03:38:11.968Z,775.57
2017-11-29T03:38:16.266Z,775.57
2017-11-29T03:38:20.427Z,775.53
2017-11-29T03:38:24.795Z,775.57
2017-11-29T03:38:28.955Z,775.57
2017-11-29T03:38:33.226Z,775.58
2017-11-29T03:38:37.487Z,775.56
2017-11-29T03:38:41.677Z,775.56
2017-11-29T03:38:46.080Z,775.54
2017-11-29T03:38:50.235Z,775.56
2017-11-29T03:38:54.618Z,775.54
2017-11-29T03:38:59.002Z,775.58
2017-11-29T03:39:03.495Z,775.6
2017-11-29T03:39:07.783Z,775.56
2017-11-29T03:39:12.069Z,775.55
2017-11-29T03:39:16.358Z,775.56
2017-11-29T03:39:20.391Z,775.57
2017-11-29T03:39:24.544Z,775.56
2017-11-29T03:39:28.915Z,775.55
2017-11-29T03:39:33.295Z,775.57
2017-11-29T03:39:37.480Z,775.53
2017-11-29T03:39:41.411Z,775.5
2017-11-29T03:39:45.797Z,775.58
2017-11-29T03:39:50.187Z,775.56
2017-11-29T03:39:54.455Z,775.57
2017-11-29T03:39:58.720Z,775.57
2017-11-29T03:40:03.079Z,775.59
2017-11-29T03:40:07.354Z,775.57
2017-11-29T03:40:11.503Z,775.55
2017-11-29T03:40:15.674Z,775.57
2017-11-29T03:40:19.944Z,775.61
2017-11-29T03:40:24.208Z,775.56
2017-11-29T03:40:28.493Z,775.56
2017-11-29T03:40:32.771Z,775.56
2017-11-29T03:40:36.928Z,775.57
2017-11-29T03:40:41.338Z,775.6
2017-11-29T03:40:45.726Z,775.58
2017-11-29T03:40:50.003Z,775.65
2017-11-29T03:40:54.403Z,775.57
2017-11-29T03:40:58.786Z,775.57
2017-11-29T03:41:03.157Z,775.57
2017-11-29T03:41:07.333Z,775.59
2017-11-29T03:41:11.596Z,775.65
2017-11-29T03:41:15.877Z,775.64
2017-11-29T03:41:20.034Z,775.66
2017-11-29T03:41:24.217Z,775.65
2017-11-29T03:41:28.474Z,775.64
2017-11-29T03:41:32.756Z,775.65
2017-11-29T03:41:37.013Z,775.62
2017-11-29T03:41:41.177Z,775.66
2017-11-29T03:41:45.584Z,775.67
2017-11-29T03:41:49.844Z,775.7
2017-11-29T03:41:54.138Z,775.64
2017-11-29T03:41:58.300Z,775.68
2017-11-29T03:42:02.577Z,775.7
2017-11-29T03:42:06.851Z,775.7
2017-11-29T03:42:11.268Z,775.68
2017-11-29T03:42:15.424Z,775.72
2017-11-29T03:42:19.838Z,775.71
2017-11-29T03:42:24.254Z,775.69
2017-11-29T03:42:28.404Z,775.69
2017-11-29T03:42:32.573Z,775.69
2017-11-29T03:42:36.727Z,775.7
2017-11-29T03:42:40.891Z,775.7
2017-11-29T03:42:45.157Z,775.68
2017-11-29T03:42:49.310Z,775.68
2017-11-29T03:42:53.695Z,775.7
2017-11-29T03:42:58.075Z,775.73
2017-11-29T03:43:02.248Z,775.71
2017-11-29T03:43:06.412Z,775.7
2017-11-29T03:43:10.803Z,775.72
2017-11-29T03:43:15.228Z,775.71
2017-11-29T03:43:19.499Z,775.76
2017-11-29T03:43:23.867Z,775.73
2017-11-29T03:43:28.147Z,775.71
2017-11-29T03:43:32.182Z,775.75
2017-11-29T03:43:36.468Z,775.72
2017-11-29T03:43:40.752Z,775.73
2017-11-29T03:43:44.911Z,775.71
2017-11-29T03:43:49.082Z,775.75
2017-11-29T03:43:53.123Z,775.71
2017-11-29T03:43:57.508Z,775.7
2017-11-29T03:44:01.914Z,775.7
2017-11-29T03:44:06.313Z,775.74
2017-11-29T03:44:10.727Z,775.74
2017-11-29T03:44:14.989Z,775.75
2017-11-29T03:44:19.256Z,775.75
2017-11-29T03:44:23.643Z,775.71
2017-11-29T03:44:27.922Z,775.73
2017-11-29T03:44:32.205Z,775.72
2017-11-29T03:44:36.529Z,775.72
2017-11-29T03:44:40.684Z,775.75
2017-11-29T03:44:44.941Z,775.75
2017-11-29T03:44:49.239Z,775.73
2017-11-29T03:44:53.288Z,775.73
2017-11-29T03:44:57.565Z,775.74
2017-11-29T03:45:01.843Z,775.74
2017-11-29T03:45:06.274Z,775.75
2017-11-29T03:45:10.670Z,775.76
2017-11-29T03:45:14.944Z,775.72
2017-11-29T03:45:19.209Z,775.73
2017-11-29T03:45:23.614Z,775.74
2017-11-29T03:45:27.898Z,775.73
2017-11-29T03:45:32.284Z,775.73
2017-11-29T03:45:36.562Z,775.77
2017-11-29T03:45:40.721Z,775.75
2017-11-29T03:45:44.877Z,775.76
2017-11-29T03:45:49.248Z,775.81
2017-11-29T03:45:53.300Z,775.77
2017-11-29T03:45:57.596Z,775.8
2017-11-29T03:46:02.071Z,775.79
2017-11-29T03:46:06.227Z,775.78
2017-11-29T03:46:10.386Z,775.79
2017-11-29T03:46:14.412Z,775.78
2017-11-29T03:46:18.811Z,775.76
2017-11-29T03:46:23.212Z,775.78
2017-11-29T03:46:27.494Z,775.78
2017-11-29T03:46:31.757Z,775.78
2017-11-29T03:46:36.038Z,775.78
2017-11-29T03:46:40.304Z,775.77
2017-11-29T03:46:44.580Z,775.77
2017-11-29T03:46:48.900Z,775.79
2017-11-29T03:46:52.946Z,775.75
2017-11-29T03:46:56.998Z,775.75
2017-11-29T03:47:01.275Z,775.78
2017-11-29T03:47:05.480Z,775.7
2017-11-29T03:47:09.849Z,775.77
2017-11-29T03:47:14.235Z,775.77
2017-11-29T03:47:18.624Z,775.74
2017-11-29T03:47:22.900Z,775.77
2017-11-29T03:47:27.178Z,775.78
2017-11-29T03:47:31.326Z,775.76
2017-11-29T03:47:35.369Z,775.77
2017-11-29T03:47:39.790Z,775.77
2017-11-29T03:47:43.845Z,775.78
2017-11-29T03:47:48.015Z,775.78
2017-11-29T03:47:52.206Z,775.78
2017-11-29T03:47:56.479Z,775.69
2017-11-29T03:48:00.749Z,775.75
2017-11-29T03:48:05.167Z,775.76
2017-11-29T03:48:09.438Z,775.75
2017-11-29T03:48:13.833Z,775.76
2017-11-29T03:48:17.894Z,775.75
2017-11-29T03:48:22.187Z,775.81
2017-11-29T03:48:26.459Z,775.78
2017-11-29T03:48:30.717Z,775.77
2017-11-29T03:48:35.020Z,775.76
2017-11-29T03:48:39.312Z,775.79
2017-11-29T03:48:43.693Z,775.8
2017-11-29T03:48:48.090Z,775.78
2017-11-29T03:48:52.277Z,775.76
2017-11-29T03:48:56.335Z,775.74
2017-11-29T03:49:00.714Z,775.77
2017-11-29T03:49:05.005Z,775.76
2017-11-29T03:49:09.377Z,775.74
2017-11-29T03:49:13.656Z,775.79
2017-11-29T03:49:17.871Z,775.78
2017-11-29T03:49:22.035Z,775.78
2017-11-29T03:49:26.313Z,775.81
2017-11-29T03:49:30.587Z,775.78
2017-11-29T03:49:34.961Z,775.8
2017-11-29T03:49:39.222Z,775.79
2017-11-29T03:49:43.399Z,775.8
2017-11-29T03:49:47.791Z,775.76
2017-11-29T03:49:52.072Z,775.83
2017-11-29T03:49:56.003Z,775.78
2017-11-29T03:50:00.278Z,775.79
2017-11-29T03:50:04.331Z,775.81
2017-11-29T03:50:08.272Z,775.84
2017-11-29T03:50:12.448Z,775.77
2017-11-29T03:50:16.828Z,775.78
2017-11-29T03:50:21.222Z,775.8
2017-11-29T03:50:25.599Z,775.77
2017-11-29T03:50:29.986Z,775.78
2017-11-29T03:50:34.150Z,775.76
2017-11-29T03:50:38.425Z,775.81
2017-11-29T03:50:42.505Z,775.82
2017-11-29T03:50:46.679Z,775.81
2017-11-29T03:50:50.958Z,775.79
2017-11-29T03:50:55.329Z,775.81
2017-11-29T03:50:59.631Z,775.79
2017-11-29T03:51:04.022Z,775.8
2017-11-29T03:51:08.073Z,775.81
2017-11-29T03:51:12.488Z,775.81
2017-11-29T03:51:16.546Z,775.81
2017-11-29T03:51:20.919Z,775.83
2017-11-29T03:51:25.090Z,775.82
2017-11-29T03:51:29.407Z,775.82
2017-11-29T03:51:33.521Z,775.82
2017-11-29T03:51:37.922Z,775.8
2017-11-29T03:51:42.124Z,775.82
2017-11-29T03:51:46.278Z,775.84
2017-11-29T03:51:50.544Z,775.86
2017-11-29T03:51:54.841Z,775.79
2017-11-29T03:51:59.128Z,775.83
2017-11-29T03:52:03.504Z,775.81
2017-11-29T03:52:07.677Z,775.83
2017-11-29T03:52:11.845Z,775.84
2017-11-29T03:52:16.118Z,775.83
2017-11-29T03:52:20.504Z,775.85
2017-11-29T03:52:24.774Z,775.83
2017-11-29T03:52:29.054Z,775.84
2017-11-29T03:52:33.236Z,775.85
2017-11-29T03:52:37.518Z,775.84
2017-11-29T03:52:41.776Z,775.83
2017-11-29T03:52:46.165Z,775.86
2017-11-29T03:52:50.309Z,775.83
2017-11-29T03:52:54.254Z,775.83
2017-11-29T03:52:58.427Z,775.84
2017-11-29T03:53:02.940Z,775.86
2017-11-29T03:53:07.306Z,775.85
2017-11-29T03:53:11.726Z,775.87
2017-11-29T03:53:15.912Z,775.89
2017-11-29T03:53:20.290Z,775.84
2017-11-29T03:53:24.562Z,775.84
2017-11-29T03:53:28.847Z,775.83